sensor_id;sensor_type;location;lat;lon;timestamp;temperature;humidity
33881;DHT22;20172;47.530;10.256;2023-02-28T00:01:17;0.20;99.90
33881;DHT22;20172;47.530;10.256;2023-02-28T00:03:43;0.20;99.90
33881;DHT22;20172;47.530;10.256;2023-02-28T00:06:09;0.20;99.90
33881;DHT22;20172;47.530;10.256;2023-02-28T00:08:35;0.20;99.90
33881;DHT22;20172;47.530;10.256;2023-02-28T00:11:01;0.20;99.90
33881;DHT22;20172;47.530;10.256;2023-02-28T00:13:27;0.10;99.90
33881;DHT22;20172;47.530;10.256;2023-02-28T00:16:03;0.10;99.90
33881;DHT22;20172;47.530;10.256;2023-02-28T00:18:28;0.10;99.90
33881;DHT22;20172;47.530;10.256;2023-02-28T00:20:54;0.10;99.90
33881;DHT22;20172;47.530;10.256;2023-02-28T00:23:20;0.10;99.90
33881;DHT22;20172;47.530;10.256;2023-02-28T00:25:45;0.20;99.90
33881;DHT22;20172;47.530;10.256;2023-02-28T00:28:11;0.20;99.90
33881;DHT22;20172;47.530;10.256;2023-02-28T00:30:36;0.20;99.90
33881;DHT22;20172;47.530;10.256;2023-02-28T00:33:02;0.20;99.90
33881;DHT22;20172;47.530;10.256;2023-02-28T00:35:27;0.20;99.90
33881;DHT22;20172;47.530;10.256;2023-02-28T00:37:53;0.20;99.90
33881;DHT22;20172;47.530;10.256;2023-02-28T00:40:18;0.20;99.90
33881;DHT22;20172;47.530;10.256;2023-02-28T00:42:44;0.30;99.90
33881;DHT22;20172;47.530;10.256;2023-02-28T00:45:09;0.30;99.90
33881;DHT22;20172;47.530;10.256;2023-02-28T00:47:35;0.30;99.90
33881;DHT22;20172;47.530;10.256;2023-02-28T00:50:01;0.30;99.90
33881;DHT22;20172;47.530;10.256;2023-02-28T00:52:26;0.20;99.90
33881;DHT22;20172;47.530;10.256;2023-02-28T00:54:52;0.20;99.90
33881;DHT22;20172;47.530;10.256;2023-02-28T00:57:17;0.20;99.90
33881;DHT22;20172;47.530;10.256;2023-02-28T00:59:43;0.20;99.90
33881;DHT22;20172;47.530;10.256;2023-02-28T01:02:08;0.20;99.90
33881;DHT22;20172;47.530;10.256;2023-02-28T01:04:34;0.20;99.90
33881;DHT22;20172;47.530;10.256;2023-02-28T01:06:59;0.20;99.90
33881;DHT22;20172;47.530;10.256;2023-02-28T01:09:25;0.20;99.90
33881;DHT22;20172;47.530;10.256;2023-02-28T01:11:51;0.20;99.90
33881;DHT22;20172;47.530;10.256;2023-02-28T01:14:16;0.20;99.90
33881;DHT22;20172;47.530;10.256;2023-02-28T01:16:42;0.20;99.90
33881;DHT22;20172;47.530;10.256;2023-02-28T01:19:08;0.10;99.90
33881;DHT22;20172;47.530;10.256;2023-02-28T01:21:33;0.10;99.90
33881;DHT22;20172;47.530;10.256;2023-02-28T01:24:00;0.10;99.90
33881;DHT22;20172;47.530;10.256;2023-02-28T01:26:25;0.10;99.90
33881;DHT22;20172;47.530;10.256;2023-02-28T01:28:51;0.10;99.90
33881;DHT22;20172;47.530;10.256;2023-02-28T01:31:17;0.10;99.90
33881;DHT22;20172;47.530;10.256;2023-02-28T01:33:43;0.10;99.90
33881;DHT22;20172;47.530;10.256;2023-02-28T01:36:10;0.10;99.90
33881;DHT22;20172;47.530;10.256;2023-02-28T01:38:36;0.10;99.90
33881;DHT22;20172;47.530;10.256;2023-02-28T01:41:05;0.00;99.90
33881;DHT22;20172;47.530;10.256;2023-02-28T01:43:32;0.00;99.90
33881;DHT22;20172;47.530;10.256;2023-02-28T01:45:58;0.00;99.90
33881;DHT22;20172;47.530;10.256;2023-02-28T01:48:25;-0.10;99.90
33881;DHT22;20172;47.530;10.256;2023-02-28T01:50:51;-0.10;99.90
33881;DHT22;20172;47.530;10.256;2023-02-28T01:53:18;-0.20;99.90
33881;DHT22;20172;47.530;10.256;2023-02-28T01:55:46;-0.30;99.90
33881;DHT22;20172;47.530;10.256;2023-02-28T01:58:12;-0.30;99.90
33881;DHT22;20172;47.530;10.256;2023-02-28T02:00:38;-0.40;99.90
33881;DHT22;20172;47.530;10.256;2023-02-28T02:03:06;-0.40;99.90
33881;DHT22;20172;47.530;10.256;2023-02-28T02:05:34;-0.40;99.90
33881;DHT22;20172;47.530;10.256;2023-02-28T02:08:02;-0.40;99.90
33881;DHT22;20172;47.530;10.256;2023-02-28T02:10:31;-0.50;99.90
33881;DHT22;20172;47.530;10.256;2023-02-28T02:17:52;-0.50;99.90
33881;DHT22;20172;47.530;10.256;2023-02-28T02:28:21;-0.60;99.90
33881;DHT22;20172;47.530;10.256;2023-02-28T02:31:03;-0.60;99.90
33881;DHT22;20172;47.530;10.256;2023-02-28T02:36:21;-0.50;99.90
33881;DHT22;20172;47.530;10.256;2023-02-28T02:44:13;-0.60;99.90
33881;DHT22;20172;47.530;10.256;2023-02-28T02:46:44;-0.60;99.90
33881;DHT22;20172;47.530;10.256;2023-02-28T02:49:10;-0.60;99.90
33881;DHT22;20172;47.530;10.256;2023-02-28T02:51:38;-0.60;99.90
33881;DHT22;20172;47.530;10.256;2023-02-28T02:54:11;-0.60;99.90
33881;DHT22;20172;47.530;10.256;2023-02-28T02:56:41;-0.60;99.90
33881;DHT22;20172;47.530;10.256;2023-02-28T02:59:09;-0.70;99.90
33881;DHT22;20172;47.530;10.256;2023-02-28T03:01:35;-0.70;99.90
33881;DHT22;20172;47.530;10.256;2023-02-28T03:04:10;-0.70;99.90
33881;DHT22;20172;47.530;10.256;2023-02-28T03:06:36;-0.80;99.90
33881;DHT22;20172;47.530;10.256;2023-02-28T03:09:02;-0.70;99.90
33881;DHT22;20172;47.530;10.256;2023-02-28T03:11:28;-0.70;99.90
33881;DHT22;20172;47.530;10.256;2023-02-28T03:14:11;-0.80;99.90
33881;DHT22;20172;47.530;10.256;2023-02-28T03:22:09;-0.80;99.90
33881;DHT22;20172;47.530;10.256;2023-02-28T03:25:00;-0.80;99.90
33881;DHT22;20172;47.530;10.256;2023-02-28T03:27:29;-0.80;99.90
33881;DHT22;20172;47.530;10.256;2023-02-28T03:35:20;-0.80;99.90
33881;DHT22;20172;47.530;10.256;2023-02-28T03:37:47;-0.80;99.90
33881;DHT22;20172;47.530;10.256;2023-02-28T03:40:15;-0.80;99.90
33881;DHT22;20172;47.530;10.256;2023-02-28T03:42:43;-0.80;99.90
33881;DHT22;20172;47.530;10.256;2023-02-28T03:45:16;-0.80;99.90
33881;DHT22;20172;47.530;10.256;2023-02-28T03:50:16;-0.80;99.90
33881;DHT22;20172;47.530;10.256;2023-02-28T03:55:25;-0.70;99.90
33881;DHT22;20172;47.530;10.256;2023-02-28T04:00:37;-0.60;99.90
33881;DHT22;20172;47.530;10.256;2023-02-28T04:03:03;-0.50;99.90
33881;DHT22;20172;47.530;10.256;2023-02-28T04:05:29;-0.50;99.90
33881;DHT22;20172;47.530;10.256;2023-02-28T04:08:03;-0.50;99.90
33881;DHT22;20172;47.530;10.256;2023-02-28T04:10:28;-0.50;99.90
33881;DHT22;20172;47.530;10.256;2023-02-28T04:12:54;-0.50;99.90
33881;DHT22;20172;47.530;10.256;2023-02-28T04:15:19;-0.50;99.90
33881;DHT22;20172;47.530;10.256;2023-02-28T04:17:48;-0.50;99.90
33881;DHT22;20172;47.530;10.256;2023-02-28T04:20:13;-0.40;99.90
33881;DHT22;20172;47.530;10.256;2023-02-28T04:22:39;-0.40;99.90
33881;DHT22;20172;47.530;10.256;2023-02-28T04:25:04;-0.40;99.90
33881;DHT22;20172;47.530;10.256;2023-02-28T04:27:30;-0.30;99.90
33881;DHT22;20172;47.530;10.256;2023-02-28T04:29:56;-0.30;99.90
33881;DHT22;20172;47.530;10.256;2023-02-28T04:32:21;-0.30;99.90
33881;DHT22;20172;47.530;10.256;2023-02-28T04:34:47;-0.30;99.90
33881;DHT22;20172;47.530;10.256;2023-02-28T04:37:13;-0.40;99.90
33881;DHT22;20172;47.530;10.256;2023-02-28T04:39:39;-0.40;99.90
33881;DHT22;20172;47.530;10.256;2023-02-28T04:42:05;-0.40;99.90
33881;DHT22;20172;47.530;10.256;2023-02-28T04:44:30;-0.50;99.90
33881;DHT22;20172;47.530;10.256;2023-02-28T04:46:56;-0.50;99.90
33881;DHT22;20172;47.530;10.256;2023-02-28T04:49:22;-0.50;99.90
33881;DHT22;20172;47.530;10.256;2023-02-28T04:51:47;-0.50;99.90
33881;DHT22;20172;47.530;10.256;2023-02-28T04:54:15;-0.50;99.90
33881;DHT22;20172;47.530;10.256;2023-02-28T04:56:41;-0.60;99.90
33881;DHT22;20172;47.530;10.256;2023-02-28T04:59:07;-0.70;99.90
33881;DHT22;20172;47.530;10.256;2023-02-28T05:01:33;-0.70;99.90
33881;DHT22;20172;47.530;10.256;2023-02-28T05:04:00;-0.70;99.90
33881;DHT22;20172;47.530;10.256;2023-02-28T05:06:27;-0.60;99.90
33881;DHT22;20172;47.530;10.256;2023-02-28T05:08:53;-0.60;99.90
33881;DHT22;20172;47.530;10.256;2023-02-28T05:11:19;-0.60;99.90
33881;DHT22;20172;47.530;10.256;2023-02-28T05:13:46;-0.50;99.90
33881;DHT22;20172;47.530;10.256;2023-02-28T05:16:11;-0.50;99.90
33881;DHT22;20172;47.530;10.256;2023-02-28T05:18:40;-0.50;99.90
33881;DHT22;20172;47.530;10.256;2023-02-28T05:21:06;-0.50;99.90
33881;DHT22;20172;47.530;10.256;2023-02-28T05:23:31;-0.60;99.90
33881;DHT22;20172;47.530;10.256;2023-02-28T05:25:57;-0.70;99.90
33881;DHT22;20172;47.530;10.256;2023-02-28T05:28:23;-0.70;99.90
33881;DHT22;20172;47.530;10.256;2023-02-28T05:30:48;-0.60;99.90
33881;DHT22;20172;47.530;10.256;2023-02-28T05:33:14;-0.50;99.90
33881;DHT22;20172;47.530;10.256;2023-02-28T05:35:40;-0.50;99.90
33881;DHT22;20172;47.530;10.256;2023-02-28T05:38:05;-0.50;99.90
33881;DHT22;20172;47.530;10.256;2023-02-28T05:40:31;-0.50;99.90
33881;DHT22;20172;47.530;10.256;2023-02-28T05:42:56;-0.60;99.90
33881;DHT22;20172;47.530;10.256;2023-02-28T05:45:22;-0.70;99.90
33881;DHT22;20172;47.530;10.256;2023-02-28T05:47:47;-0.60;99.90
33881;DHT22;20172;47.530;10.256;2023-02-28T05:50:13;-0.60;99.90
33881;DHT22;20172;47.530;10.256;2023-02-28T05:52:38;-0.60;99.90
33881;DHT22;20172;47.530;10.256;2023-02-28T05:55:04;-0.60;99.90
33881;DHT22;20172;47.530;10.256;2023-02-28T05:57:30;-0.70;99.90
33881;DHT22;20172;47.530;10.256;2023-02-28T05:59:55;-0.70;99.90
33881;DHT22;20172;47.530;10.256;2023-02-28T06:02:21;-0.70;99.90
33881;DHT22;20172;47.530;10.256;2023-02-28T06:04:46;-0.70;99.90
33881;DHT22;20172;47.530;10.256;2023-02-28T06:07:12;-0.80;99.90
33881;DHT22;20172;47.530;10.256;2023-02-28T06:09:37;-0.70;99.90
33881;DHT22;20172;47.530;10.256;2023-02-28T06:12:03;-0.70;99.90
33881;DHT22;20172;47.530;10.256;2023-02-28T06:14:31;-0.70;99.90
33881;DHT22;20172;47.530;10.256;2023-02-28T06:17:00;-0.70;99.90
33881;DHT22;20172;47.530;10.256;2023-02-28T06:19:26;-0.80;99.90
33881;DHT22;20172;47.530;10.256;2023-02-28T06:21:54;-0.80;99.90
33881;DHT22;20172;47.530;10.256;2023-02-28T06:24:20;-0.70;99.90
33881;DHT22;20172;47.530;10.256;2023-02-28T06:26:46;-0.70;99.90
33881;DHT22;20172;47.530;10.256;2023-02-28T06:29:12;-0.70;99.90
33881;DHT22;20172;47.530;10.256;2023-02-28T06:31:37;-0.70;99.90
33881;DHT22;20172;47.530;10.256;2023-02-28T06:34:04;-0.60;99.90
33881;DHT22;20172;47.530;10.256;2023-02-28T06:36:30;-0.70;99.90
33881;DHT22;20172;47.530;10.256;2023-02-28T06:38:56;-0.70;99.90
33881;DHT22;20172;47.530;10.256;2023-02-28T06:41:22;-0.60;99.90
33881;DHT22;20172;47.530;10.256;2023-02-28T06:43:48;-0.60;99.90
33881;DHT22;20172;47.530;10.256;2023-02-28T06:46:14;-0.50;99.90
33881;DHT22;20172;47.530;10.256;2023-02-28T06:48:40;-0.50;99.90
33881;DHT22;20172;47.530;10.256;2023-02-28T06:51:06;-0.40;99.90
33881;DHT22;20172;47.530;10.256;2023-02-28T06:53:32;-0.30;99.90
33881;DHT22;20172;47.530;10.256;2023-02-28T06:55:58;-0.30;99.90
33881;DHT22;20172;47.530;10.256;2023-02-28T06:58:24;-0.30;99.90
33881;DHT22;20172;47.530;10.256;2023-02-28T07:00:50;-0.30;99.90
33881;DHT22;20172;47.530;10.256;2023-02-28T07:03:16;-0.20;99.90
33881;DHT22;20172;47.530;10.256;2023-02-28T07:05:42;-0.20;99.90
33881;DHT22;20172;47.530;10.256;2023-02-28T07:08:08;-0.20;99.90
33881;DHT22;20172;47.530;10.256;2023-02-28T07:10:34;-0.20;99.90
33881;DHT22;20172;47.530;10.256;2023-02-28T07:13:02;-0.20;99.90
33881;DHT22;20172;47.530;10.256;2023-02-28T07:15:28;-0.20;99.90
33881;DHT22;20172;47.530;10.256;2023-02-28T07:17:53;-0.10;99.90
33881;DHT22;20172;47.530;10.256;2023-02-28T07:20:19;-0.10;99.90
33881;DHT22;20172;47.530;10.256;2023-02-28T07:22:45;-0.10;99.90
33881;DHT22;20172;47.530;10.256;2023-02-28T07:25:13;-0.10;99.90
33881;DHT22;20172;47.530;10.256;2023-02-28T07:27:38;-0.20;99.90
33881;DHT22;20172;47.530;10.256;2023-02-28T07:30:04;-0.20;99.90
33881;DHT22;20172;47.530;10.256;2023-02-28T07:32:30;-0.20;99.90
33881;DHT22;20172;47.530;10.256;2023-02-28T07:34:55;-0.20;99.90
33881;DHT22;20172;47.530;10.256;2023-02-28T07:37:21;-0.10;99.90
33881;DHT22;20172;47.530;10.256;2023-02-28T07:39:46;0.00;99.90
33881;DHT22;20172;47.530;10.256;2023-02-28T07:42:12;0.10;99.90
33881;DHT22;20172;47.530;10.256;2023-02-28T07:44:38;0.10;99.90
33881;DHT22;20172;47.530;10.256;2023-02-28T07:47:09;0.00;99.90
33881;DHT22;20172;47.530;10.256;2023-02-28T07:49:38;0.10;99.90
33881;DHT22;20172;47.530;10.256;2023-02-28T07:52:04;0.10;99.90
33881;DHT22;20172;47.530;10.256;2023-02-28T07:54:30;0.20;99.90
33881;DHT22;20172;47.530;10.256;2023-02-28T07:56:55;0.30;99.90
33881;DHT22;20172;47.530;10.256;2023-02-28T07:59:21;0.60;99.90
33881;DHT22;20172;47.530;10.256;2023-02-28T08:01:46;0.70;99.90
33881;DHT22;20172;47.530;10.256;2023-02-28T08:04:14;0.80;99.90
33881;DHT22;20172;47.530;10.256;2023-02-28T08:06:40;0.80;99.90
33881;DHT22;20172;47.530;10.256;2023-02-28T08:09:05;0.70;99.90
33881;DHT22;20172;47.530;10.256;2023-02-28T08:11:31;0.70;99.90
33881;DHT22;20172;47.530;10.256;2023-02-28T08:13:57;0.70;99.90
33881;DHT22;20172;47.530;10.256;2023-02-28T08:16:23;0.80;99.90
33881;DHT22;20172;47.530;10.256;2023-02-28T08:18:49;0.90;99.90
33881;DHT22;20172;47.530;10.256;2023-02-28T08:21:15;0.90;99.90
33881;DHT22;20172;47.530;10.256;2023-02-28T08:23:41;1.00;99.90
33881;DHT22;20172;47.530;10.256;2023-02-28T08:26:06;1.10;99.90
33881;DHT22;20172;47.530;10.256;2023-02-28T08:28:32;1.10;99.90
33881;DHT22;20172;47.530;10.256;2023-02-28T08:30:58;1.20;99.90
33881;DHT22;20172;47.530;10.256;2023-02-28T08:33:24;1.30;99.90
33881;DHT22;20172;47.530;10.256;2023-02-28T08:35:53;1.30;99.90
33881;DHT22;20172;47.530;10.256;2023-02-28T08:38:19;1.30;99.90
33881;DHT22;20172;47.530;10.256;2023-02-28T08:40:45;1.50;99.90
33881;DHT22;20172;47.530;10.256;2023-02-28T08:43:10;1.60;99.90
33881;DHT22;20172;47.530;10.256;2023-02-28T08:45:36;1.70;99.90
33881;DHT22;20172;47.530;10.256;2023-02-28T08:48:01;1.70;99.90
33881;DHT22;20172;47.530;10.256;2023-02-28T08:50:27;1.90;99.90
33881;DHT22;20172;47.530;10.256;2023-02-28T08:52:52;1.90;99.90
33881;DHT22;20172;47.530;10.256;2023-02-28T08:55:18;2.00;99.90
33881;DHT22;20172;47.530;10.256;2023-02-28T08:57:43;2.10;99.90
33881;DHT22;20172;47.530;10.256;2023-02-28T09:00:09;2.20;99.90
33881;DHT22;20172;47.530;10.256;2023-02-28T09:02:39;2.30;99.90
33881;DHT22;20172;47.530;10.256;2023-02-28T09:05:05;2.40;99.90
33881;DHT22;20172;47.530;10.256;2023-02-28T09:07:33;2.60;99.90
33881;DHT22;20172;47.530;10.256;2023-02-28T09:09:59;2.70;99.90
33881;DHT22;20172;47.530;10.256;2023-02-28T09:12:25;2.70;99.90
33881;DHT22;20172;47.530;10.256;2023-02-28T09:14:51;2.90;99.90
33881;DHT22;20172;47.530;10.256;2023-02-28T09:17:16;3.20;99.90
33881;DHT22;20172;47.530;10.256;2023-02-28T09:19:42;3.30;99.90
33881;DHT22;20172;47.530;10.256;2023-02-28T09:22:08;3.30;99.90
33881;DHT22;20172;47.530;10.256;2023-02-28T09:24:33;3.60;99.90
33881;DHT22;20172;47.530;10.256;2023-02-28T09:27:00;3.80;99.90
33881;DHT22;20172;47.530;10.256;2023-02-28T09:29:26;3.90;99.90
33881;DHT22;20172;47.530;10.256;2023-02-28T09:31:51;4.00;99.90
33881;DHT22;20172;47.530;10.256;2023-02-28T09:34:17;4.20;99.90
33881;DHT22;20172;47.530;10.256;2023-02-28T09:36:42;4.20;99.90
33881;DHT22;20172;47.530;10.256;2023-02-28T09:39:08;4.30;99.90
33881;DHT22;20172;47.530;10.256;2023-02-28T09:41:38;4.70;99.90
33881;DHT22;20172;47.530;10.256;2023-02-28T09:44:11;5.10;99.90
33881;DHT22;20172;47.530;10.256;2023-02-28T09:46:40;5.40;99.90
33881;DHT22;20172;47.530;10.256;2023-02-28T09:49:12;5.40;99.90
33881;DHT22;20172;47.530;10.256;2023-02-28T09:54:10;6.40;99.40
33881;DHT22;20172;47.530;10.256;2023-02-28T09:56:39;6.70;98.40
33881;DHT22;20172;47.530;10.256;2023-02-28T09:59:12;7.10;96.80
33881;DHT22;20172;47.530;10.256;2023-02-28T10:06:54;7.70;96.40
33881;DHT22;20172;47.530;10.256;2023-02-28T10:09:22;8.10;94.20
33881;DHT22;20172;47.530;10.256;2023-02-28T10:11:50;8.80;93.30
33881;DHT22;20172;47.530;10.256;2023-02-28T10:14:24;9.50;92.30
33881;DHT22;20172;47.530;10.256;2023-02-28T10:16:55;10.50;90.70
33881;DHT22;20172;47.530;10.256;2023-02-28T10:24:57;12.20;73.30
33881;DHT22;20172;47.530;10.256;2023-02-28T10:27:28;12.10;71.70
33881;DHT22;20172;47.530;10.256;2023-02-28T10:29:55;11.50;70.80
33881;DHT22;20172;47.530;10.256;2023-02-28T10:32:34;11.30;70.80
33881;DHT22;20172;47.530;10.256;2023-02-28T10:35:06;12.40;71.80
33881;DHT22;20172;47.530;10.256;2023-02-28T10:37:32;13.80;67.30
33881;DHT22;20172;47.530;10.256;2023-02-28T10:40:03;15.10;64.10
33881;DHT22;20172;47.530;10.256;2023-02-28T10:42:31;16.20;59.20
33881;DHT22;20172;47.530;10.256;2023-02-28T10:45:04;16.80;57.70
33881;DHT22;20172;47.530;10.256;2023-02-28T10:47:30;17.60;54.80
33881;DHT22;20172;47.530;10.256;2023-02-28T10:49:57;18.30;52.10
33881;DHT22;20172;47.530;10.256;2023-02-28T10:55:22;19.20;48.10
33881;DHT22;20172;47.530;10.256;2023-02-28T10:57:48;19.70;48.20
33881;DHT22;20172;47.530;10.256;2023-02-28T11:02:46;21.10;44.50
33881;DHT22;20172;47.530;10.256;2023-02-28T11:05:23;21.30;43.40
33881;DHT22;20172;47.530;10.256;2023-02-28T11:10:28;22.00;42.60
33881;DHT22;20172;47.530;10.256;2023-02-28T11:12:55;23.00;40.60
33881;DHT22;20172;47.530;10.256;2023-02-28T11:15:23;23.10;39.80
33881;DHT22;20172;47.530;10.256;2023-02-28T11:17:57;23.00;39.70
33881;DHT22;20172;47.530;10.256;2023-02-28T11:20:24;23.30;39.30
33881;DHT22;20172;47.530;10.256;2023-02-28T11:22:51;23.40;39.00
33881;DHT22;20172;47.530;10.256;2023-02-28T11:25:28;23.80;38.50
33881;DHT22;20172;47.530;10.256;2023-02-28T11:27:59;23.90;37.80
33881;DHT22;20172;47.530;10.256;2023-02-28T11:32:59;22.40;37.50
33881;DHT22;20172;47.530;10.256;2023-02-28T11:35:36;22.40;37.50
33881;DHT22;20172;47.530;10.256;2023-02-28T11:38:04;22.50;37.70
33881;DHT22;20172;47.530;10.256;2023-02-28T11:48:27;23.80;36.30
33881;DHT22;20172;47.530;10.256;2023-02-28T11:51:11;23.60;36.30
33881;DHT22;20172;47.530;10.256;2023-02-28T11:59:08;23.20;36.00
33881;DHT22;20172;47.530;10.256;2023-02-28T12:07:06;23.30;36.40
33881;DHT22;20172;47.530;10.256;2023-02-28T12:18:03;22.30;37.50
33881;DHT22;20172;47.530;10.256;2023-02-28T12:23:19;22.90;35.60
33881;DHT22;20172;47.530;10.256;2023-02-28T12:28:14;22.10;35.90
33881;DHT22;20172;47.530;10.256;2023-02-28T12:30:44;20.80;36.30
33881;DHT22;20172;47.530;10.256;2023-02-28T12:33:14;19.50;37.50
33881;DHT22;20172;47.530;10.256;2023-02-28T12:35:48;18.50;38.70
33881;DHT22;20172;47.530;10.256;2023-02-28T12:38:16;17.90;39.50
33881;DHT22;20172;47.530;10.256;2023-02-28T12:41:00;17.50;40.10
33881;DHT22;20172;47.530;10.256;2023-02-28T12:43:31;17.40;39.80
33881;DHT22;20172;47.530;10.256;2023-02-28T12:46:02;17.50;40.30
33881;DHT22;20172;47.530;10.256;2023-02-28T12:48:39;18.60;40.00
33881;DHT22;20172;47.530;10.256;2023-02-28T12:51:05;19.90;39.00
33881;DHT22;20172;47.530;10.256;2023-02-28T12:53:39;20.20;38.10
33881;DHT22;20172;47.530;10.256;2023-02-28T12:58:37;19.80;38.70
33881;DHT22;20172;47.530;10.256;2023-02-28T13:09:02;19.00;39.00
33881;DHT22;20172;47.530;10.256;2023-02-28T13:11:31;19.80;39.60
33881;DHT22;20172;47.530;10.256;2023-02-28T13:14:04;21.10;38.20
33881;DHT22;20172;47.530;10.256;2023-02-28T13:19:15;22.80;36.90
33881;DHT22;20172;47.530;10.256;2023-02-28T13:21:43;22.90;36.40
33881;DHT22;20172;47.530;10.256;2023-02-28T13:24:10;22.90;36.30
33881;DHT22;20172;47.530;10.256;2023-02-28T13:34:20;23.70;35.30
33881;DHT22;20172;47.530;10.256;2023-02-28T13:36:46;23.00;35.40
33881;DHT22;20172;47.530;10.256;2023-02-28T13:41:56;23.80;35.50
33881;DHT22;20172;47.530;10.256;2023-02-28T13:44:22;23.70;35.20
33881;DHT22;20172;47.530;10.256;2023-02-28T13:49:18;23.10;35.60
33881;DHT22;20172;47.530;10.256;2023-02-28T13:51:48;22.50;35.80
33881;DHT22;20172;47.530;10.256;2023-02-28T13:57:34;18.50;38.10
33881;DHT22;20172;47.530;10.256;2023-02-28T13:59:53;16.70;39.70
33881;DHT22;20172;47.530;10.256;2023-02-28T14:04:59;13.70;43.00
33881;DHT22;20172;47.530;10.256;2023-02-28T14:07:27;12.30;45.10
33881;DHT22;20172;47.530;10.256;2023-02-28T14:10:03;11.50;46.70
33881;DHT22;20172;47.530;10.256;2023-02-28T14:18:03;10.10;50.30
33881;DHT22;20172;47.530;10.256;2023-02-28T14:20:31;9.70;51.60
33881;DHT22;20172;47.530;10.256;2023-02-28T14:38:28;5.60;60.90
33881;DHT22;20172;47.530;10.256;2023-02-28T14:40:56;5.20;62.10
33881;DHT22;20172;47.530;10.256;2023-02-28T14:43:26;5.00;63.80
33881;DHT22;20172;47.530;10.256;2023-02-28T14:45:55;4.70;64.40
33881;DHT22;20172;47.530;10.256;2023-02-28T14:48:22;4.40;66.10
33881;DHT22;20172;47.530;10.256;2023-02-28T14:50:50;4.20;67.20
33881;DHT22;20172;47.530;10.256;2023-02-28T14:53:17;4.20;68.30
33881;DHT22;20172;47.530;10.256;2023-02-28T14:55:46;4.30;69.00
33881;DHT22;20172;47.530;10.256;2023-02-28T14:58:26;4.20;69.10
33881;DHT22;20172;47.530;10.256;2023-02-28T15:00:53;4.10;69.90
33881;DHT22;20172;47.530;10.256;2023-02-28T15:03:21;3.90;70.70
33881;DHT22;20172;47.530;10.256;2023-02-28T15:06:00;3.80;71.20
33881;DHT22;20172;47.530;10.256;2023-02-28T15:08:26;3.80;72.50
33881;DHT22;20172;47.530;10.256;2023-02-28T15:10:58;3.60;72.90
33881;DHT22;20172;47.530;10.256;2023-02-28T15:13:47;3.50;74.40
33881;DHT22;20172;47.530;10.256;2023-02-28T15:16:17;3.30;75.20
33881;DHT22;20172;47.530;10.256;2023-02-28T15:18:50;3.30;76.80
33881;DHT22;20172;47.530;10.256;2023-02-28T15:21:22;3.20;77.50
33881;DHT22;20172;47.530;10.256;2023-02-28T15:23:53;3.10;78.40
33881;DHT22;20172;47.530;10.256;2023-02-28T15:26:22;3.00;79.30
33881;DHT22;20172;47.530;10.256;2023-02-28T15:28:54;2.90;80.20
33881;DHT22;20172;47.530;10.256;2023-02-28T15:31:30;2.80;81.60
33881;DHT22;20172;47.530;10.256;2023-02-28T15:34:05;2.70;82.80
33881;DHT22;20172;47.530;10.256;2023-02-28T15:36:31;2.60;84.30
33881;DHT22;20172;47.530;10.256;2023-02-28T15:38:59;2.40;86.20
33881;DHT22;20172;47.530;10.256;2023-02-28T15:41:29;2.30;86.80
33881;DHT22;20172;47.530;10.256;2023-02-28T15:44:55;2.30;88.00
33881;DHT22;20172;47.530;10.256;2023-02-28T15:49:24;2.30;89.20
33881;DHT22;20172;47.530;10.256;2023-02-28T15:51:50;2.20;90.20
33881;DHT22;20172;47.530;10.256;2023-02-28T15:54:30;2.20;90.50
33881;DHT22;20172;47.530;10.256;2023-02-28T15:56:57;2.20;91.00
33881;DHT22;20172;47.530;10.256;2023-02-28T15:59:29;2.10;91.50
33881;DHT22;20172;47.530;10.256;2023-02-28T16:02:30;2.00;92.10
33881;DHT22;20172;47.530;10.256;2023-02-28T16:04:54;1.90;92.50
33881;DHT22;20172;47.530;10.256;2023-02-28T16:07:20;1.90;93.20
33881;DHT22;20172;47.530;10.256;2023-02-28T16:09:46;1.90;93.50
33881;DHT22;20172;47.530;10.256;2023-02-28T16:12:13;1.90;94.00
33881;DHT22;20172;47.530;10.256;2023-02-28T16:14:39;1.80;94.40
33881;DHT22;20172;47.530;10.256;2023-02-28T16:17:06;1.80;94.70
33881;DHT22;20172;47.530;10.256;2023-02-28T16:19:43;1.80;95.20
33881;DHT22;20172;47.530;10.256;2023-02-28T16:22:09;1.80;95.60
33881;DHT22;20172;47.530;10.256;2023-02-28T16:24:34;1.70;96.00
33881;DHT22;20172;47.530;10.256;2023-02-28T16:27:00;1.70;96.50
33881;DHT22;20172;47.530;10.256;2023-02-28T16:29:27;1.60;96.90
33881;DHT22;20172;47.530;10.256;2023-02-28T16:31:53;1.60;97.20
33881;DHT22;20172;47.530;10.256;2023-02-28T16:34:19;1.60;97.40
33881;DHT22;20172;47.530;10.256;2023-02-28T16:36:48;1.60;97.80
33881;DHT22;20172;47.530;10.256;2023-02-28T16:39:14;1.60;98.40
33881;DHT22;20172;47.530;10.256;2023-02-28T16:41:41;1.50;98.50
33881;DHT22;20172;47.530;10.256;2023-02-28T16:44:09;1.40;98.90
33881;DHT22;20172;47.530;10.256;2023-02-28T16:46:36;1.40;99.30
33881;DHT22;20172;47.530;10.256;2023-02-28T16:49:04;1.40;99.60
33881;DHT22;20172;47.530;10.256;2023-02-28T16:51:30;1.50;99.60
33881;DHT22;20172;47.530;10.256;2023-02-28T16:53:56;1.50;99.90
33881;DHT22;20172;47.530;10.256;2023-02-28T16:56:22;1.50;99.90
33881;DHT22;20172;47.530;10.256;2023-02-28T16:58:48;1.40;99.90
33881;DHT22;20172;47.530;10.256;2023-02-28T17:01:14;1.30;99.90
33881;DHT22;20172;47.530;10.256;2023-02-28T17:03:40;1.20;99.90
33881;DHT22;20172;47.530;10.256;2023-02-28T17:06:08;1.30;99.90
33881;DHT22;20172;47.530;10.256;2023-02-28T17:08:40;1.30;99.90
33881;DHT22;20172;47.530;10.256;2023-02-28T17:11:06;1.30;99.90
33881;DHT22;20172;47.530;10.256;2023-02-28T17:13:31;1.40;99.90
33881;DHT22;20172;47.530;10.256;2023-02-28T17:15:59;1.40;99.90
33881;DHT22;20172;47.530;10.256;2023-02-28T17:18:25;1.40;99.90
33881;DHT22;20172;47.530;10.256;2023-02-28T17:20:51;1.30;99.90
33881;DHT22;20172;47.530;10.256;2023-02-28T17:23:17;1.30;99.90
33881;DHT22;20172;47.530;10.256;2023-02-28T17:25:43;1.30;99.90
33881;DHT22;20172;47.530;10.256;2023-02-28T17:28:18;1.30;99.90
33881;DHT22;20172;47.530;10.256;2023-02-28T17:30:44;1.40;99.90
33881;DHT22;20172;47.530;10.256;2023-02-28T17:33:12;1.50;99.90
33881;DHT22;20172;47.530;10.256;2023-02-28T17:35:37;1.50;99.90
33881;DHT22;20172;47.530;10.256;2023-02-28T17:38:03;1.50;99.90
33881;DHT22;20172;47.530;10.256;2023-02-28T17:40:28;1.50;99.90
33881;DHT22;20172;47.530;10.256;2023-02-28T17:42:56;1.60;99.90
33881;DHT22;20172;47.530;10.256;2023-02-28T17:45:22;1.60;99.90
33881;DHT22;20172;47.530;10.256;2023-02-28T17:47:50;1.70;99.90
33881;DHT22;20172;47.530;10.256;2023-02-28T17:50:17;1.80;99.90
33881;DHT22;20172;47.530;10.256;2023-02-28T17:52:43;1.60;99.90
33881;DHT22;20172;47.530;10.256;2023-02-28T17:55:09;1.50;99.90
33881;DHT22;20172;47.530;10.256;2023-02-28T17:57:34;1.40;99.90